createdAt,value
2022-10-30T00:03:31.646Z,97686.59
2022-10-30T00:05:58.462Z,97683.94
2022-10-30T01:01:04.340Z,97669.81
2022-10-30T01:16:56.330Z,97656.91
2022-10-30T01:22:58.527Z,97659.78
2022-10-30T01:25:36.600Z,97664.56
2022-10-30T01:28:20.741Z,97657.34
2022-10-30T01:30:49.941Z,97656.34
2022-10-30T01:33:26.395Z,97642.22
2022-10-30T01:35:57.316Z,97649.53
2022-10-30T01:38:26.520Z,97645.84
2022-10-30T01:40:52.885Z,97646.66
2022-10-30T01:43:19.900Z,97650.53
2022-10-30T01:45:55.205Z,97656.06
2022-10-30T01:48:25.087Z,97644.88
2022-10-30T01:51:02.891Z,97648.28
2022-10-30T01:53:29.262Z,97635.31
2022-10-30T01:56:02.448Z,97635.59
2022-10-30T01:58:36.118Z,97633.25
2022-10-30T02:01:03.045Z,97629.59
2022-10-30T02:03:29.525Z,97633.78
2022-10-30T02:05:55.849Z,97639.00
2022-10-30T02:08:23.677Z,97625.19
2022-10-30T02:10:51.900Z,97628.25
2022-10-30T02:13:18.580Z,97628.25
2022-10-30T02:15:47.842Z,97635.06
2022-10-30T02:18:14.376Z,97631.72
2022-10-30T02:20:41.272Z,97635.41
2022-10-30T02:23:09.169Z,97629.03
2022-10-30T02:25:35.824Z,97638.50
2022-10-30T02:28:02.232Z,97640.38
2022-10-30T02:30:33.856Z,97631.72
2022-10-30T02:33:01.760Z,97632.72
2022-10-30T02:35:29.736Z,97632.22
2022-10-30T02:37:56.587Z,97633.94
2022-10-30T02:40:23.271Z,97634.22
2022-10-30T02:42:53.434Z,97625.59
2022-10-30T02:45:23.125Z,97631.75
2022-10-30T02:47:49.588Z,97628.06
2022-10-30T02:50:16.927Z,97630.75
2022-10-30T02:52:46.563Z,97633.81
2022-10-30T02:55:12.981Z,97633.66
2022-10-30T02:57:39.586Z,97636.53
2022-10-30T03:00:07.287Z,97629.00
2022-10-30T03:02:33.659Z,97635.50
2022-10-30T03:05:00.043Z,97635.22
2022-10-30T03:07:26.435Z,97632.88
2022-10-30T03:09:54.236Z,97631.69
2022-10-30T03:12:20.879Z,97635.00
2022-10-30T03:14:47.355Z,97633.72
2022-10-30T03:17:13.769Z,97637.19
2022-10-30T03:19:40.997Z,97637.91
2022-10-30T03:22:07.828Z,97633.09
2022-10-30T03:24:34.272Z,97633.59
2022-10-30T03:27:00.644Z,97640.22
2022-10-30T03:29:27.001Z,97639.16
2022-10-30T03:31:53.371Z,97640.50
2022-10-30T03:34:19.803Z,97644.19
2022-10-30T03:36:46.190Z,97645.13
2022-10-30T03:39:12.905Z,97647.50
2022-10-30T03:41:39.320Z,97644.41
2022-10-30T03:44:05.726Z,97648.50
2022-10-30T03:46:32.329Z,97641.56
2022-10-30T03:48:58.761Z,97641.47
2022-10-30T03:51:25.157Z,97642.78
2022-10-30T03:53:52.770Z,97643.97
2022-10-30T03:56:20.148Z,97641.13
2022-10-30T03:58:46.798Z,97644.97
2022-10-30T04:01:16.211Z,97649.69
2022-10-30T04:03:42.688Z,97639.06
2022-10-30T04:06:09.259Z,97641.53
2022-10-30T04:08:37.248Z,97641.75
2022-10-30T04:11:04.341Z,97644.56
2022-10-30T04:13:30.785Z,97640.91
2022-10-30T04:15:58.535Z,97643.72
2022-10-30T04:18:25.293Z,97651.13
2022-10-30T04:20:51.654Z,97639.06
2022-10-30T04:23:19.186Z,97634.50
2022-10-30T04:25:45.910Z,97638.31
2022-10-30T04:28:12.958Z,97632.09
2022-10-30T04:30:42.113Z,97631.78
2022-10-30T04:33:13.151Z,97626.31
2022-10-30T04:35:40.884Z,97626.41
2022-10-30T04:38:08.400Z,97624.28
2022-10-30T04:40:36.288Z,97618.69
2022-10-30T04:43:05.619Z,97620.19
2022-10-30T04:45:32.020Z,97617.13
2022-10-30T04:48:02.512Z,97617.38
2022-10-30T04:50:29.331Z,97611.94
2022-10-30T04:52:59.879Z,97614.44
2022-10-30T04:55:26.225Z,97607.66
2022-10-30T04:57:56.035Z,97613.91
2022-10-30T05:00:22.694Z,97613.22
2022-10-30T05:02:49.171Z,97610.13
2022-10-30T05:05:15.579Z,97608.97
2022-10-30T05:07:44.648Z,97607.00
2022-10-30T05:10:12.475Z,97605.16
2022-10-30T05:12:38.821Z,97604.38
2022-10-30T05:15:05.427Z,97611.19
2022-10-30T05:17:31.793Z,97600.97
2022-10-30T05:19:58.138Z,97611.56
2022-10-30T05:22:24.933Z,97614.13
2022-10-30T05:24:52.340Z,97610.53
2022-10-30T05:27:18.706Z,97609.41
2022-10-30T05:29:45.040Z,97619.75
2022-10-30T05:32:11.799Z,97610.91
2022-10-30T05:34:38.170Z,97610.91
2022-10-30T05:37:04.545Z,97618.44
2022-10-30T05:39:30.925Z,97608.41
2022-10-30T05:41:57.599Z,97613.13
2022-10-30T05:44:40.560Z,97609.84
2022-10-30T05:47:11.424Z,97614.59
2022-10-30T05:49:37.843Z,97614.81
2022-10-30T05:52:04.286Z,97621.34
2022-10-30T05:54:30.628Z,97621.72
2022-10-30T05:56:57.354Z,97622.22
2022-10-30T05:59:23.717Z,97615.97
2022-10-30T06:01:50.092Z,97622.47
2022-10-30T06:04:16.417Z,97621.47
2022-10-30T06:06:42.825Z,97623.31
2022-10-30T06:09:09.198Z,97626.88
2022-10-30T06:11:35.535Z,97631.38
2022-10-30T06:14:01.978Z,97635.06
2022-10-30T06:16:29.600Z,97635.50
2022-10-30T06:18:56.066Z,97646.56
2022-10-30T06:21:22.392Z,97649.94
2022-10-30T06:23:49.349Z,97642.00
2022-10-30T06:26:15.662Z,97641.38
2022-10-30T06:28:42.031Z,97648.22
2022-10-30T06:31:10.151Z,97639.13
2022-10-30T06:33:37.181Z,97638.66
2022-10-30T06:36:03.732Z,97645.91
2022-10-30T06:38:30.188Z,97652.34
2022-10-30T06:40:56.959Z,97648.19
2022-10-30T06:43:23.320Z,97648.63
2022-10-30T06:45:49.965Z,97648.25
2022-10-30T06:48:16.388Z,97645.34
2022-10-30T06:50:42.721Z,97653.03
2022-10-30T06:53:09.127Z,97652.34
2022-10-30T06:55:35.515Z,97649.97
2022-10-30T06:58:02.238Z,97649.56
2022-10-30T07:00:28.908Z,97653.31
2022-10-30T07:02:59.697Z,97651.66
2022-10-30T07:05:26.778Z,97653.25
2022-10-30T07:08:28.713Z,97656.22
2022-10-30T07:10:56.359Z,97652.59
2022-10-30T07:16:43.946Z,97657.34
2022-10-30T07:19:10.322Z,97658.44
2022-10-30T07:21:36.935Z,97655.22
2022-10-30T07:24:03.385Z,97661.75
2022-10-30T07:26:29.744Z,97661.97
2022-10-30T07:28:56.240Z,97655.44
2022-10-30T07:31:34.930Z,97657.88
2022-10-30T07:34:08.948Z,97652.94
2022-10-30T07:36:35.312Z,97654.13
2022-10-30T07:39:01.693Z,97650.53
2022-10-30T07:41:28.068Z,97655.31
2022-10-30T07:43:54.433Z,97654.59
2022-10-30T07:46:20.936Z,97657.50
2022-10-30T07:48:47.314Z,97656.91
2022-10-30T07:51:15.188Z,97653.00
2022-10-30T07:53:44.632Z,97649.88
2022-10-30T07:56:11.029Z,97657.19
2022-10-30T07:58:41.319Z,97660.22
2022-10-30T08:01:11.544Z,97656.63
2022-10-30T08:03:37.914Z,97655.59
2022-10-30T08:06:04.460Z,97660.88
2022-10-30T08:08:30.952Z,97656.03
2022-10-30T08:10:57.278Z,97657.13
2022-10-30T08:13:23.688Z,97653.75
2022-10-30T08:15:50.332Z,97647.44
2022-10-30T08:18:16.707Z,97646.38
2022-10-30T08:20:45.861Z,97647.97
2022-10-30T08:23:12.680Z,97645.84
2022-10-30T08:25:39.067Z,97637.81
2022-10-30T08:28:06.730Z,97630.56
2022-10-30T08:30:38.004Z,97624.34
2022-10-30T08:33:09.189Z,97623.97
2022-10-30T08:38:03.008Z,97612.13
2022-10-30T08:40:29.513Z,97615.25
2022-10-30T08:42:57.172Z,97618.34
2022-10-30T08:45:29.711Z,97610.09
2022-10-30T08:48:01.923Z,97600.44
2022-10-30T08:50:29.155Z,97601.00
2022-10-30T08:52:55.518Z,97604.63
2022-10-30T08:55:21.937Z,97605.34
2022-10-30T08:57:48.366Z,97600.72
2022-10-30T09:00:14.890Z,97595.06
2022-10-30T09:02:41.371Z,97598.16
2022-10-30T09:05:09.099Z,97598.66
2022-10-30T09:07:35.966Z,97591.44
2022-10-30T09:10:02.629Z,97587.22
2022-10-30T09:12:29.459Z,97590.38
2022-10-30T09:14:55.843Z,97597.34
2022-10-30T09:17:22.528Z,97598.84
2022-10-30T09:22:20.127Z,97602.28
2022-10-30T09:24:46.483Z,97604.13
2022-10-30T09:27:12.825Z,97603.13
2022-10-30T09:29:40.218Z,97598.91
2022-10-30T09:32:10.395Z,97598.38
2022-10-30T09:34:38.270Z,97597.81
2022-10-30T09:37:04.625Z,97599.25
2022-10-30T09:39:38.483Z,97595.06
2022-10-30T09:42:23.876Z,97601.75
2022-10-30T09:48:16.516Z,97596.09
2022-10-30T09:51:01.645Z,97593.09
2022-10-30T09:53:46.786Z,97599.59
2022-10-30T09:56:20.292Z,97593.06
2022-10-30T09:59:05.413Z,97587.91
2022-10-30T10:01:38.883Z,97588.00
2022-10-30T10:04:22.350Z,97581.41
2022-10-30T10:06:58.926Z,97580.53
2022-10-30T10:09:27.256Z,97578.84
2022-10-30T10:11:59.051Z,97575.75
2022-10-30T10:14:28.178Z,97573.63
2022-10-30T10:16:55.862Z,97566.53
2022-10-30T10:19:26.192Z,97567.47
2022-10-30T10:21:57.091Z,97569.34
2022-10-30T10:24:42.154Z,97566.34
2022-10-30T10:27:27.323Z,97558.28
2022-10-30T10:30:02.862Z,97561.69
2022-10-30T10:32:32.241Z,97554.25
2022-10-30T10:35:17.335Z,97553.00
2022-10-30T10:37:49.749Z,97556.84
2022-10-30T10:40:22.308Z,97552.00
2022-10-30T10:42:48.621Z,97548.97
2022-10-30T10:45:21.264Z,97546.00
2022-10-30T10:47:56.360Z,97540.38
2022-10-30T10:50:28.638Z,97539.16
2022-10-30T10:53:04.102Z,97534.25
2022-10-30T10:55:36.288Z,97533.25
2022-10-30T10:58:08.760Z,97540.19
2022-10-30T11:00:35.185Z,97528.53
2022-10-30T11:03:13.764Z,97529.38
2022-10-30T11:05:52.479Z,97523.41
2022-10-30T11:08:21.800Z,97523.88
2022-10-30T11:10:51.075Z,97520.81
2022-10-30T11:13:17.442Z,97526.06
2022-10-30T11:16:22.793Z,97529.75
2022-10-30T11:18:51.990Z,97526.19
2022-10-30T11:21:25.103Z,97529.88
2022-10-30T11:23:51.911Z,97521.22
2022-10-30T11:26:18.301Z,97525.41
2022-10-30T11:28:44.665Z,97516.78
2022-10-30T11:31:17.865Z,97520.41
2022-10-30T11:33:44.308Z,97521.63
2022-10-30T11:36:15.583Z,97504.75
2022-10-30T11:38:42.518Z,97505.84
2022-10-30T11:41:12.240Z,97505.63
2022-10-30T11:43:40.095Z,97510.00
2022-10-30T11:46:09.608Z,97509.34
2022-10-30T11:48:43.111Z,97501.22
2022-10-30T11:51:11.189Z,97501.63
2022-10-30T11:53:41.231Z,97501.03
2022-10-30T11:56:14.927Z,97499.38
2022-10-30T11:58:44.246Z,97503.66
2022-10-30T12:01:19.705Z,97493.97
2022-10-30T12:03:46.219Z,97498.28
2022-10-30T12:06:27.599Z,97497.03
2022-10-30T12:09:03.109Z,97492.56
2022-10-30T12:11:33.870Z,97485.97
2022-10-30T12:14:00.713Z,97485.09
2022-10-30T12:16:27.621Z,97485.44
2022-10-30T12:18:58.297Z,97486.38
2022-10-30T12:21:26.208Z,97482.31
2022-10-30T12:23:55.975Z,97486.41
2022-10-30T12:26:23.163Z,97480.34
2022-10-30T12:28:57.336Z,97480.41
2022-10-30T12:31:29.277Z,97476.66
2022-10-30T12:33:55.586Z,97476.13
2022-10-30T12:36:27.872Z,97479.28
2022-10-30T12:39:09.358Z,97478.38
2022-10-30T12:41:55.026Z,97477.34
2022-10-30T12:44:24.245Z,97480.28
2022-10-30T12:46:53.468Z,97477.25
2022-10-30T12:49:19.794Z,97468.41
2022-10-30T12:51:49.041Z,97469.56
2022-10-30T12:54:34.050Z,97461.94
2022-10-30T12:57:05.692Z,97460.97
2022-10-30T12:59:39.908Z,97462.94
2022-10-30T13:02:18.646Z,97457.97
2022-10-30T13:04:47.790Z,97462.41
2022-10-30T13:07:19.189Z,97460.84
2022-10-30T13:09:55.992Z,97463.66
2022-10-30T13:12:25.526Z,97454.91
2022-10-30T13:14:54.348Z,97452.53
2022-10-30T13:17:20.744Z,97452.75
2022-10-30T13:19:47.890Z,97451.28
2022-10-30T13:22:20.367Z,97455.53
2022-10-30T13:24:46.711Z,97450.94
2022-10-30T13:27:19.210Z,97451.22
2022-10-30T13:30:01.523Z,97448.97
2022-10-30T13:32:34.474Z,97442.84
2022-10-30T13:35:12.752Z,97445.50
2022-10-30T13:37:42.182Z,97442.59
2022-10-30T13:40:27.363Z,97435.06
2022-10-30T13:42:53.664Z,97434.22
2022-10-30T13:45:26.723Z,97433.78
2022-10-30T13:48:04.048Z,97436.47
2022-10-30T13:50:39.275Z,97442.03
2022-10-30T13:53:10.448Z,97440.22
2022-10-30T13:55:37.629Z,97445.56
2022-10-30T13:58:08.717Z,97440.38
2022-10-30T14:00:53.901Z,97442.75
2022-10-30T14:03:46.743Z,97437.38
2022-10-30T14:06:16.042Z,97446.09
2022-10-30T14:08:51.500Z,97450.94
2022-10-30T14:11:17.928Z,97441.03
2022-10-30T14:13:55.275Z,97441.50
2022-10-30T14:16:32.764Z,97444.66
2022-10-30T14:19:06.215Z,97445.00
2022-10-30T14:21:58.794Z,97453.81
2022-10-30T14:27:04.839Z,97448.66
2022-10-30T14:29:41.025Z,97444.78
2022-10-30T14:32:13.139Z,97444.56
2022-10-30T14:34:51.550Z,97448.38
2022-10-30T14:37:19.072Z,97442.81
2022-10-30T14:39:46.226Z,97444.72
2022-10-30T14:42:28.192Z,97443.56
2022-10-30T14:45:12.947Z,97443.97
2022-10-30T14:47:49.837Z,97442.56
2022-10-30T14:50:22.239Z,97437.84
2022-10-30T14:52:48.604Z,97432.28
2022-10-30T14:55:30.053Z,97437.16
2022-10-30T14:58:02.576Z,97435.19
2022-10-30T15:00:42.070Z,97438.84
2022-10-30T15:03:40.667Z,97432.97
2022-10-30T15:06:13.083Z,97439.56
2022-10-30T15:08:54.548Z,97436.59
2022-10-30T15:11:20.900Z,97439.13
2022-10-30T15:13:48.671Z,97439.31
2022-10-30T15:16:17.641Z,97436.84
2022-10-30T15:18:48.017Z,97443.75
2022-10-30T15:21:20.584Z,97439.25
2022-10-30T15:23:47.051Z,97442.91
2022-10-30T15:26:21.021Z,97443.75
2022-10-30T15:28:51.017Z,97442.22
2022-10-30T15:31:17.331Z,97438.84
2022-10-30T15:33:44.079Z,97442.19
2022-10-30T15:36:30.679Z,97441.91
2022-10-30T15:39:03.000Z,97440.75
2022-10-30T15:41:29.640Z,97441.41
2022-10-30T15:43:58.372Z,97441.66
2022-10-30T15:46:24.882Z,97436.66
2022-10-30T15:48:51.728Z,97437.91
2022-10-30T15:51:21.183Z,97446.75
2022-10-30T15:53:58.410Z,97448.81
2022-10-30T15:56:26.854Z,97444.81
2022-10-30T15:58:55.885Z,97451.03
2022-10-30T16:01:43.811Z,97446.34
2022-10-30T16:04:16.510Z,97449.09
2022-10-30T16:06:50.239Z,97447.47
2022-10-30T16:09:16.737Z,97439.28
2022-10-30T16:11:43.121Z,97442.44
2022-10-30T16:14:13.697Z,97454.66
2022-10-30T16:16:40.093Z,97454.19
2022-10-30T16:19:06.549Z,97454.09
2022-10-30T16:21:35.130Z,97449.41
2022-10-30T16:24:02.625Z,97443.91
2022-10-30T16:26:33.794Z,97447.88
2022-10-30T16:29:02.327Z,97446.56
2022-10-30T16:31:32.116Z,97443.91
2022-10-30T16:33:59.165Z,97447.91
2022-10-30T16:36:25.651Z,97450.31
2022-10-30T16:38:52.318Z,97454.44
2022-10-30T16:41:24.175Z,97454.22
2022-10-30T16:44:11.568Z,97460.00
2022-10-30T16:46:39.806Z,97458.78
2022-10-30T16:49:08.649Z,97461.81
2022-10-30T16:51:37.806Z,97462.16
2022-10-30T16:54:04.636Z,97463.84
2022-10-30T16:56:32.157Z,97465.06
2022-10-30T16:59:06.368Z,97462.09
2022-10-30T17:01:32.981Z,97460.41
2022-10-30T17:03:59.629Z,97461.53
2022-10-30T17:06:43.347Z,97473.91
2022-10-30T17:09:19.664Z,97470.06
2022-10-30T17:11:47.672Z,97472.41
2022-10-30T17:14:18.388Z,97472.78
2022-10-30T17:16:51.895Z,97473.03
2022-10-30T17:19:30.416Z,97473.63
2022-10-30T17:22:01.747Z,97475.75
2022-10-30T17:24:30.674Z,97482.00
2022-10-30T17:26:58.221Z,97482.69
2022-10-30T17:29:36.521Z,97490.38
2022-10-30T17:32:18.068Z,97493.97
2022-10-30T17:34:44.658Z,97499.94
2022-10-30T17:37:11.033Z,97499.56
2022-10-30T17:39:37.397Z,97495.34
2022-10-30T17:42:03.948Z,97495.44
2022-10-30T17:44:32.938Z,97505.53
2022-10-30T17:47:00.254Z,97508.97
2022-10-30T17:49:31.507Z,97504.09
2022-10-30T17:51:58.610Z,97500.94
2022-10-30T17:54:25.023Z,97503.81
2022-10-30T17:56:51.479Z,97503.81
2022-10-30T17:59:17.838Z,97509.53
2022-10-30T18:01:44.627Z,97497.00
2022-10-30T18:04:20.926Z,97504.09
2022-10-30T18:06:47.847Z,97510.50
2022-10-30T18:09:14.424Z,97512.13
2022-10-30T18:11:40.819Z,97513.38
2022-10-30T18:14:07.435Z,97514.88
2022-10-30T18:16:33.886Z,97510.78
2022-10-30T18:19:00.484Z,97515.53
2022-10-30T18:21:31.400Z,97521.13
2022-10-30T18:23:57.988Z,97515.31
2022-10-30T18:26:25.425Z,97519.88
2022-10-30T18:28:51.779Z,97520.59
2022-10-30T18:31:19.397Z,97517.00
2022-10-30T18:33:45.884Z,97510.88
2022-10-30T18:36:16.466Z,97508.25
2022-10-30T18:38:43.110Z,97518.16
2022-10-30T18:41:13.745Z,97521.72
2022-10-30T18:43:45.527Z,97518.88
2022-10-30T18:46:13.512Z,97525.31
2022-10-30T18:48:39.888Z,97523.09
2022-10-30T18:51:07.018Z,97522.94
2022-10-30T18:53:35.409Z,97519.88
2022-10-30T18:56:04.387Z,97525.00
2022-10-30T18:58:30.755Z,97524.56
2022-10-30T19:01:18.158Z,97516.19
2022-10-30T19:03:45.353Z,97531.88
2022-10-30T19:06:15.955Z,97530.28
2022-10-30T19:08:48.152Z,97518.28
2022-10-30T19:11:18.765Z,97526.63
2022-10-30T19:13:48.647Z,97524.25
2022-10-30T19:16:16.105Z,97527.72
2022-10-30T19:19:14.514Z,97524.81
2022-10-30T19:22:15.565Z,97532.53
2022-10-30T19:24:40.358Z,97534.91
2022-10-30T19:27:06.720Z,97525.03
2022-10-30T19:29:33.079Z,97530.47
2022-10-30T19:31:59.449Z,97529.38
2022-10-30T19:34:25.821Z,97527.88
2022-10-30T19:36:52.199Z,97527.03
2022-10-30T19:39:18.563Z,97525.75
2022-10-30T19:41:44.983Z,97525.44
2022-10-30T19:44:11.397Z,97532.56
2022-10-30T19:46:37.779Z,97526.84
2022-10-30T19:49:14.303Z,97526.13
2022-10-30T19:51:40.635Z,97537.22
2022-10-30T19:54:07.018Z,97532.22
2022-10-30T19:56:33.460Z,97541.56
2022-10-30T19:58:59.816Z,97540.69
2022-10-30T20:01:26.324Z,97537.50
2022-10-30T20:03:52.737Z,97536.09
2022-10-30T20:06:19.752Z,97543.44
2022-10-30T20:08:46.138Z,97542.50
2022-10-30T20:11:12.556Z,97546.44
2022-10-30T20:13:38.933Z,97548.31
2022-10-30T20:16:05.799Z,97545.97
2022-10-30T20:18:33.404Z,97555.44
2022-10-30T20:21:01.080Z,97553.38
2022-10-30T20:23:27.698Z,97548.56
2022-10-30T20:26:05.038Z,97551.69
2022-10-30T20:28:34.130Z,97546.16
2022-10-30T20:31:00.884Z,97549.13
2022-10-30T20:33:27.284Z,97545.09
2022-10-30T20:35:57.079Z,97552.81
2022-10-30T20:38:29.317Z,97552.63
2022-10-30T20:40:56.308Z,97562.75
2022-10-30T20:43:29.897Z,97562.81
2022-10-30T20:45:57.116Z,97553.66
2022-10-30T20:48:23.500Z,97558.69
2022-10-30T20:50:52.055Z,97564.03
2022-10-30T20:53:18.451Z,97555.66
2022-10-30T20:55:45.325Z,97559.22
2022-10-30T20:58:11.890Z,97567.13
2022-10-30T21:00:38.473Z,97567.75
2022-10-30T21:03:05.542Z,97562.00
2022-10-30T21:05:44.972Z,97567.69
2022-10-30T21:08:12.081Z,97577.28
2022-10-30T21:10:38.759Z,97569.56
2022-10-30T21:13:08.557Z,97573.63
2022-10-30T21:15:37.981Z,97577.53
2022-10-30T21:18:04.338Z,97580.97
2022-10-30T21:20:30.707Z,97581.56
2022-10-30T21:22:57.072Z,97584.19
2022-10-30T21:25:23.470Z,97582.56
2022-10-30T21:27:49.962Z,97579.06
2022-10-30T21:30:16.376Z,97588.16
2022-10-30T21:32:42.836Z,97583.50
2022-10-30T21:35:09.336Z,97581.22
2022-10-30T21:37:36.372Z,97578.31
2022-10-30T21:40:05.559Z,97578.56
2022-10-30T21:42:32.886Z,97575.84
2022-10-30T21:44:59.399Z,97575.16
2022-10-30T21:47:25.893Z,97569.91
2022-10-30T21:49:52.283Z,97573.72
2022-10-30T21:52:18.640Z,97569.56
2022-10-30T21:54:45.014Z,97571.97
2022-10-30T21:59:42.786Z,97573.41
2022-10-30T22:02:13.015Z,97569.91
2022-10-30T22:04:39.443Z,97581.69
2022-10-30T22:07:05.798Z,97576.63
2022-10-30T22:09:32.217Z,97572.53
2022-10-30T22:11:58.557Z,97572.88
2022-10-30T22:14:31.658Z,97562.38
2022-10-30T22:17:19.994Z,97581.09
2022-10-30T22:26:31.505Z,97563.97
2022-10-30T22:29:24.018Z,97568.63
2022-10-30T22:31:50.451Z,97570.56
2022-10-30T22:41:17.892Z,97565.03
2022-10-30T22:43:45.176Z,97558.00
2022-10-30T22:46:17.200Z,97566.97
2022-10-30T22:48:44.084Z,97576.44
2022-10-30T22:51:15.086Z,97577.41
2022-10-30T22:53:43.514Z,97577.06
2022-10-30T22:56:16.366Z,97575.78
2022-10-30T22:58:43.435Z,97577.78
2022-10-30T23:01:14.084Z,97570.09
2022-10-30T23:03:56.401Z,97577.78
2022-10-30T23:10:00.128Z,97578.75
2022-10-30T23:12:28.852Z,97577.22
2022-10-30T23:14:55.307Z,97574.91
2022-10-30T23:17:24.465Z,97577.16
2022-10-30T23:19:50.783Z,97584.47
2022-10-30T23:22:17.139Z,97574.50
2022-10-30T23:24:43.503Z,97581.22
2022-10-30T23:30:34.562Z,97579.78
2022-10-30T23:33:01.195Z,97579.78
2022-10-30T23:35:27.914Z,97576.19
2022-10-30T23:37:54.261Z,97588.66
2022-10-30T23:40:20.841Z,97585.84
2022-10-30T23:42:47.228Z,97582.69
2022-10-30T23:45:15.729Z,97584.25
2022-10-30T23:47:42.851Z,97584.53
2022-10-30T23:50:10.816Z,97588.88
2022-10-30T23:52:37.310Z,97591.03
2022-10-30T23:55:03.739Z,97591.41
2022-10-30T23:57:30.834Z,97592.47
2022-10-30T23:59:57.174Z,97580.84
